createdAt,value
2019-03-04T00:01:16.079Z,80.70
2019-03-04T00:03:59.858Z,80.90
2019-03-04T00:06:41.715Z,81.00
2019-03-04T00:09:23.945Z,81.20
2019-03-04T00:12:06.036Z,81.30
2019-03-04T00:14:47.982Z,81.40
2019-03-04T00:17:30.007Z,81.50
2019-03-04T00:20:11.875Z,80.90
2019-03-04T00:22:53.894Z,81.60
2019-03-04T00:25:36.006Z,81.60
2019-03-04T00:28:17.819Z,81.70
2019-03-04T00:31:02.041Z,81.70
2019-03-04T00:33:44.085Z,81.10
2019-03-04T00:36:26.244Z,81.70
2019-03-04T00:39:08.275Z,81.80
2019-03-04T00:41:54.184Z,81.10
2019-03-04T00:44:36.288Z,81.00
2019-03-04T00:47:18.206Z,81.30
2019-03-04T00:50:00.299Z,81.30
2019-03-04T00:52:42.403Z,80.00
2019-03-04T00:55:23.952Z,79.50
2019-03-04T00:58:07.805Z,78.30
2019-03-04T01:00:51.689Z,77.70
2019-03-04T01:03:33.699Z,77.50
2019-03-04T01:06:15.820Z,77.40
2019-03-04T01:08:59.861Z,77.20
2019-03-04T01:11:41.873Z,77.80
2019-03-04T01:14:23.922Z,79.10
2019-03-04T01:17:06.061Z,80.10
2019-03-04T01:22:31.725Z,81.30
2019-03-04T01:25:13.706Z,81.60
2019-03-04T01:27:57.045Z,82.10
2019-03-04T01:30:39.065Z,83.00
2019-03-04T01:33:21.266Z,82.70
2019-03-04T01:36:05.608Z,82.80
2019-03-04T01:38:47.658Z,83.00
2019-03-04T01:41:29.685Z,83.10
2019-03-04T01:44:12.604Z,83.40
2019-03-04T01:46:56.607Z,84.10
2019-03-04T01:49:39.304Z,84.30
2019-03-04T01:52:21.435Z,84.20
2019-03-04T01:55:04.598Z,81.20
2019-03-04T01:57:48.503Z,80.30
2019-03-04T02:00:30.252Z,81.20
2019-03-04T02:03:12.595Z,80.80
2019-03-04T02:05:55.507Z,81.50
2019-03-04T02:08:39.533Z,82.00
2019-03-04T02:11:21.622Z,83.20
2019-03-04T02:14:03.828Z,84.30
2019-03-04T02:16:46.674Z,84.40
2019-03-04T02:19:30.731Z,84.80
2019-03-04T02:22:12.405Z,84.10
2019-03-04T02:24:54.489Z,83.30
2019-03-04T02:27:36.790Z,82.90
2019-03-04T02:30:18.175Z,83.60
2019-03-04T02:33:01.374Z,83.80
2019-03-04T02:35:43.098Z,83.70
2019-03-04T02:38:26.027Z,83.90
2019-03-04T02:41:09.874Z,84.80
2019-03-04T02:43:52.224Z,85.30
2019-03-04T02:46:36.469Z,85.40
2019-03-04T02:49:18.338Z,85.70
2019-03-04T02:52:02.333Z,85.70
2019-03-04T02:54:46.505Z,85.60
2019-03-04T02:57:28.424Z,85.60
2019-03-04T03:00:10.118Z,85.00
2019-03-04T03:05:37.244Z,84.80
2019-03-04T03:08:19.321Z,84.50
2019-03-04T03:11:01.306Z,84.70
2019-03-04T03:13:44.169Z,84.80
2019-03-04T03:16:25.945Z,85.00
2019-03-04T03:19:10.973Z,85.40
2019-03-04T03:21:54.906Z,85.70
2019-03-04T03:24:38.741Z,85.80
2019-03-04T03:27:22.711Z,85.50
2019-03-04T03:30:06.571Z,85.20
2019-03-04T03:32:48.593Z,85.30
2019-03-04T03:35:30.184Z,85.70
2019-03-04T03:38:12.082Z,85.90
2019-03-04T03:40:56.180Z,86.20
2019-03-04T03:43:41.046Z,86.20
2019-03-04T03:46:25.095Z,86.40
2019-03-04T03:49:08.822Z,86.40
2019-03-04T03:51:53.070Z,86.40
2019-03-04T03:54:35.365Z,86.70
2019-03-04T03:57:19.414Z,86.80
2019-03-04T04:00:03.240Z,86.50
2019-03-04T04:02:46.110Z,86.10
2019-03-04T04:05:28.074Z,86.10
2019-03-04T04:08:09.865Z,86.10
2019-03-04T04:10:51.682Z,86.00
2019-03-04T04:13:33.517Z,86.00
2019-03-04T04:16:16.346Z,86.00
2019-03-04T04:18:58.425Z,86.10
2019-03-04T04:21:39.992Z,86.30
2019-03-04T04:24:21.987Z,86.70
2019-03-04T04:27:04.750Z,86.70
2019-03-04T04:29:50.442Z,86.70
2019-03-04T04:32:32.196Z,86.80
2019-03-04T04:35:14.155Z,87.10
2019-03-04T04:37:56.293Z,87.10
2019-03-04T04:40:38.021Z,86.90
2019-03-04T04:43:20.713Z,86.80
2019-03-04T04:46:02.481Z,86.70
2019-03-04T04:48:45.198Z,86.50
2019-03-04T04:51:29.225Z,86.20
2019-03-04T04:54:11.041Z,86.20
2019-03-04T04:56:53.835Z,86.20
2019-03-04T04:59:36.062Z,86.10
2019-03-04T05:02:17.951Z,86.20
2019-03-04T05:04:59.717Z,85.70
2019-03-04T05:10:25.226Z,85.30
2019-03-04T05:13:07.458Z,85.20
2019-03-04T05:15:49.663Z,85.10
2019-03-04T05:18:33.533Z,85.10
2019-03-04T05:21:15.494Z,84.80
2019-03-04T05:23:57.387Z,84.60
2019-03-04T05:26:39.394Z,84.30
2019-03-04T05:29:22.471Z,84.00
2019-03-04T05:32:04.480Z,83.70
2019-03-04T05:34:46.489Z,84.40
2019-03-04T05:37:28.486Z,84.70
2019-03-04T05:40:11.273Z,84.90
2019-03-04T05:42:54.052Z,84.90
2019-03-04T05:45:35.848Z,85.30
2019-03-04T05:48:18.357Z,85.50
2019-03-04T05:51:00.142Z,85.70
2019-03-04T05:53:42.121Z,85.80
2019-03-04T05:56:23.957Z,86.00
2019-03-04T05:59:05.743Z,85.70
2019-03-04T06:01:47.678Z,85.20
2019-03-04T06:04:30.486Z,85.20
2019-03-04T06:10:13.082Z,84.60
2019-03-04T06:12:54.891Z,85.30
2019-03-04T06:15:37.611Z,85.90
2019-03-04T06:18:19.657Z,86.20
2019-03-04T06:21:01.641Z,86.40
2019-03-04T06:23:43.600Z,86.50
2019-03-04T06:26:25.619Z,86.00
2019-03-04T06:29:07.830Z,85.60
2019-03-04T06:31:49.772Z,85.20
2019-03-04T06:34:31.878Z,85.00
2019-03-04T06:37:13.832Z,84.30
2019-03-04T06:39:56.163Z,84.00
2019-03-04T06:42:38.225Z,83.50
2019-03-04T06:45:20.410Z,82.90
2019-03-04T06:48:02.383Z,81.80
2019-03-04T06:50:44.766Z,81.20
2019-03-04T06:53:27.917Z,80.60
2019-03-04T06:56:11.881Z,79.40
2019-03-04T06:58:54.901Z,78.20
2019-03-04T07:01:38.913Z,77.30
2019-03-04T07:04:21.668Z,75.20
2019-03-04T07:07:03.640Z,74.00
2019-03-04T07:09:45.807Z,71.70
2019-03-04T07:12:27.709Z,71.00
2019-03-04T07:15:09.682Z,70.20
2019-03-04T07:17:51.654Z,70.20
2019-03-04T07:20:33.861Z,70.20
2019-03-04T07:23:16.007Z,69.80
2019-03-04T07:25:58.058Z,68.50
2019-03-04T07:28:40.287Z,68.50
2019-03-04T07:31:22.673Z,68.50
2019-03-04T07:34:06.532Z,68.00
2019-03-04T07:36:50.604Z,67.60
2019-03-04T07:39:34.508Z,67.20
2019-03-04T07:42:18.936Z,65.10
2019-03-04T07:45:01.065Z,64.10
2019-03-04T07:47:43.638Z,62.80
2019-03-04T07:50:27.323Z,62.20
2019-03-04T07:53:09.198Z,59.90
2019-03-04T07:55:51.092Z,60.00
2019-03-04T07:58:32.973Z,58.70
2019-03-04T08:01:17.132Z,56.90
2019-03-04T08:03:58.769Z,51.60
2019-03-04T08:06:44.508Z,51.20
2019-03-04T08:09:26.360Z,48.30
2019-03-04T08:12:07.954Z,46.30
2019-03-04T08:14:50.774Z,45.80
2019-03-04T08:17:32.439Z,45.30
2019-03-04T08:20:14.251Z,45.20
2019-03-04T08:22:58.177Z,42.80
2019-03-04T08:25:42.476Z,42.10
2019-03-04T08:28:26.567Z,40.80
2019-03-04T08:31:10.886Z,39.70
2019-03-04T08:33:52.618Z,38.00
2019-03-04T08:36:34.574Z,37.10
2019-03-04T08:39:16.475Z,35.00
2019-03-04T08:41:59.465Z,32.40
2019-03-04T08:44:43.518Z,30.40
2019-03-04T08:47:25.446Z,29.10
2019-03-04T08:50:07.342Z,27.60
2019-03-04T08:52:49.426Z,26.80
2019-03-04T08:55:31.664Z,26.80
2019-03-04T08:58:13.901Z,27.10
2019-03-04T09:00:58.962Z,27.00
2019-03-04T09:03:42.781Z,28.60
2019-03-04T09:06:24.857Z,30.60
2019-03-04T09:09:06.797Z,33.70
2019-03-04T09:11:53.665Z,35.20
2019-03-04T09:14:35.805Z,37.00
2019-03-04T09:17:18.045Z,38.60
2019-03-04T09:19:59.901Z,39.00
2019-03-04T09:22:41.793Z,39.70
2019-03-04T09:25:30.361Z,40.20
2019-03-04T09:28:09.200Z,40.30
2019-03-04T09:30:51.695Z,40.40
2019-03-04T09:33:33.683Z,39.70
2019-03-04T09:36:16.841Z,38.70
2019-03-04T09:38:58.805Z,37.90
2019-03-04T09:41:41.536Z,37.90
2019-03-04T09:44:23.968Z,38.10
2019-03-04T09:47:06.941Z,38.60
2019-03-04T09:49:50.864Z,39.00
2019-03-04T09:52:33.796Z,39.80
2019-03-04T09:55:15.584Z,40.20
2019-03-04T09:57:57.386Z,40.70
2019-03-04T10:00:39.155Z,41.20
2019-03-04T10:03:21.971Z,41.10
2019-03-04T10:06:03.719Z,41.90
2019-03-04T10:08:46.637Z,42.20
2019-03-04T10:11:28.810Z,42.00
2019-03-04T10:14:11.731Z,42.00
2019-03-04T10:16:55.772Z,42.70
2019-03-04T10:19:38.630Z,42.80
2019-03-04T10:22:22.480Z,43.00
2019-03-04T10:25:04.711Z,43.40
2019-03-04T10:27:49.254Z,43.40
2019-03-04T10:30:31.258Z,43.20
2019-03-04T10:33:13.792Z,43.60
2019-03-04T10:35:57.034Z,44.50
2019-03-04T10:38:42.952Z,45.50
2019-03-04T10:41:24.452Z,46.90
2019-03-04T10:44:06.435Z,48.20
2019-03-04T10:46:48.858Z,48.60
2019-03-04T10:49:34.550Z,48.10
2019-03-04T10:52:18.873Z,48.50
2019-03-04T10:55:01.048Z,48.90
2019-03-04T10:57:42.893Z,48.80
2019-03-04T11:00:24.912Z,49.00
2019-03-04T11:03:09.084Z,48.70
2019-03-04T11:05:52.240Z,48.90
2019-03-04T11:08:36.279Z,49.30
2019-03-04T11:11:18.218Z,49.60
2019-03-04T11:14:00.223Z,49.80
2019-03-04T11:16:44.431Z,49.20
2019-03-04T11:19:26.447Z,48.10
2019-03-04T11:22:09.364Z,47.60
2019-03-04T11:24:51.559Z,46.90
2019-03-04T11:27:35.903Z,45.80
2019-03-04T11:30:18.663Z,45.10
2019-03-04T11:33:03.328Z,43.80
2019-03-04T11:35:45.408Z,42.50
2019-03-04T11:38:31.008Z,42.20
2019-03-04T11:41:15.110Z,42.90
2019-03-04T11:43:56.854Z,43.10
2019-03-04T11:46:39.473Z,43.60
2019-03-04T11:49:21.330Z,44.00
2019-03-04T11:52:03.022Z,43.50
2019-03-04T11:54:45.296Z,43.80
2019-03-04T11:57:26.878Z,44.00
2019-03-04T12:00:12.124Z,40.90
2019-03-04T12:02:55.946Z,35.70
2019-03-04T12:05:38.100Z,32.20
2019-03-04T12:08:21.388Z,32.60
2019-03-04T12:11:07.995Z,34.80
2019-03-04T12:13:49.867Z,39.80
2019-03-04T12:16:31.992Z,37.80
2019-03-04T12:19:15.263Z,38.60
2019-03-04T12:21:59.692Z,39.00
2019-03-04T12:24:42.053Z,36.90
2019-03-04T12:27:24.237Z,33.60
2019-03-04T12:30:06.519Z,32.60
2019-03-04T12:32:48.407Z,31.30
2019-03-04T12:35:30.356Z,30.90
2019-03-04T12:38:12.461Z,33.20
2019-03-04T12:40:55.227Z,34.70
2019-03-04T12:43:37.665Z,35.40
2019-03-04T12:46:22.412Z,35.50
2019-03-04T12:49:04.193Z,34.90
2019-03-04T12:51:46.879Z,35.30
2019-03-04T12:54:28.857Z,35.40
2019-03-04T13:00:17.478Z,36.20
2019-03-04T13:03:01.573Z,37.20
2019-03-04T13:05:45.793Z,37.00
2019-03-04T13:08:29.865Z,37.50
2019-03-04T13:11:14.417Z,37.40
2019-03-04T13:13:56.310Z,37.00
2019-03-04T13:16:38.566Z,37.60
2019-03-04T13:19:20.570Z,37.70
2019-03-04T13:22:08.501Z,37.60
2019-03-04T13:24:49.314Z,37.40
2019-03-04T13:27:32.295Z,38.00
2019-03-04T13:30:16.172Z,37.90
2019-03-04T13:32:59.258Z,37.60
2019-03-04T13:35:45.030Z,38.00
2019-03-04T13:38:27.429Z,38.20
2019-03-04T13:41:11.656Z,37.90
2019-03-04T13:43:55.771Z,37.80
2019-03-04T13:46:39.989Z,37.90
2019-03-04T13:49:21.991Z,37.20
2019-03-04T13:52:06.910Z,36.90
2019-03-04T13:54:50.785Z,37.10
2019-03-04T13:57:34.693Z,36.90
2019-03-04T14:00:17.247Z,37.60
2019-03-04T14:03:01.504Z,37.50
2019-03-04T14:05:44.604Z,37.30
2019-03-04T14:08:28.311Z,37.50
2019-03-04T14:11:12.650Z,37.30
2019-03-04T14:13:57.626Z,36.60
2019-03-04T14:16:39.477Z,36.70
2019-03-04T14:19:23.348Z,36.80
2019-03-04T14:22:05.089Z,36.80
2019-03-04T14:24:47.388Z,36.90
2019-03-04T14:27:29.672Z,36.90
2019-03-04T14:30:13.754Z,36.80
2019-03-04T14:32:57.754Z,37.30
2019-03-04T14:35:40.343Z,37.10
2019-03-04T14:38:22.048Z,37.70
2019-03-04T14:41:04.015Z,37.90
2019-03-04T14:43:45.943Z,37.80
2019-03-04T14:46:27.686Z,37.70
2019-03-04T14:49:10.660Z,37.50
2019-03-04T14:51:52.736Z,37.30
2019-03-04T14:54:35.682Z,37.20
2019-03-04T14:57:17.698Z,36.50
2019-03-04T15:00:00.465Z,36.50
2019-03-04T15:02:43.510Z,36.50
2019-03-04T15:05:25.806Z,36.70
2019-03-04T15:08:07.845Z,36.70
2019-03-04T15:10:49.858Z,36.90
2019-03-04T15:13:31.943Z,36.90
2019-03-04T15:16:14.098Z,36.90
2019-03-04T15:18:56.132Z,36.60
2019-03-04T15:21:38.078Z,37.00
2019-03-04T15:24:19.816Z,37.10
2019-03-04T15:27:01.928Z,37.20
2019-03-04T15:29:43.989Z,37.80
2019-03-04T15:32:25.883Z,37.40
2019-03-04T15:35:09.662Z,37.40
2019-03-04T15:37:52.218Z,37.40
2019-03-04T15:40:34.285Z,37.10
2019-03-04T15:43:18.191Z,37.00
2019-03-04T15:46:02.391Z,36.70
2019-03-04T15:48:46.797Z,36.10
2019-03-04T15:51:28.794Z,36.00
2019-03-04T15:54:11.164Z,35.90
2019-03-04T15:56:53.260Z,36.10
2019-03-04T15:59:35.538Z,36.90
2019-03-04T16:02:17.306Z,38.40
2019-03-04T16:04:59.219Z,39.90
2019-03-04T16:07:41.705Z,39.30
2019-03-04T16:10:24.091Z,37.20
2019-03-04T16:13:06.016Z,36.10
2019-03-04T16:18:28.785Z,35.60
2019-03-04T16:21:10.547Z,36.90
2019-03-04T16:23:53.166Z,37.70
2019-03-04T16:26:35.266Z,38.40
2019-03-04T16:29:17.017Z,39.00
2019-03-04T16:32:00.926Z,39.60
2019-03-04T16:34:46.976Z,40.30
2019-03-04T16:37:28.828Z,40.80
2019-03-04T16:40:11.196Z,42.40
2019-03-04T16:42:54.964Z,41.50
2019-03-04T16:45:39.002Z,41.50
2019-03-04T16:48:09.513Z,41.60
2019-03-04T16:50:51.925Z,41.90
2019-03-04T16:53:33.850Z,42.20
2019-03-04T16:56:15.977Z,42.30
2019-03-04T16:58:58.057Z,42.90
2019-03-04T17:01:40.361Z,43.80
2019-03-04T17:04:22.871Z,45.60
2019-03-04T17:07:04.677Z,46.50
2019-03-04T17:09:48.751Z,48.00
2019-03-04T17:12:32.789Z,48.70
2019-03-04T17:15:16.002Z,49.90
2019-03-04T17:18:00.050Z,50.60
2019-03-04T17:20:41.813Z,51.20
2019-03-04T17:23:26.507Z,52.00
2019-03-04T17:26:08.169Z,52.60
2019-03-04T17:28:51.394Z,53.00
2019-03-04T17:31:35.466Z,53.00
2019-03-04T17:34:19.944Z,53.50
2019-03-04T17:37:01.828Z,54.40
2019-03-04T17:39:43.883Z,55.10
2019-03-04T17:42:25.696Z,55.60
2019-03-04T17:45:09.805Z,55.70
2019-03-04T17:47:53.670Z,55.80
2019-03-04T17:50:36.894Z,56.20
2019-03-04T17:53:18.813Z,56.50
2019-03-04T17:56:03.372Z,56.80
2019-03-04T17:58:45.496Z,56.80
2019-03-04T18:01:27.319Z,56.80
2019-03-04T18:04:11.434Z,57.00
2019-03-04T18:06:55.322Z,57.00
2019-03-04T18:09:39.308Z,57.40
2019-03-04T18:12:21.408Z,57.80
2019-03-04T18:15:05.413Z,57.90
2019-03-04T18:17:49.361Z,57.40
2019-03-04T18:20:34.501Z,57.20
2019-03-04T18:23:15.116Z,57.00
2019-03-04T18:25:57.064Z,56.80
2019-03-04T18:28:39.829Z,56.80
2019-03-04T18:31:23.833Z,56.60
2019-03-04T18:34:06.773Z,56.10
2019-03-04T18:36:52.528Z,55.80
2019-03-04T18:39:34.915Z,55.80
2019-03-04T18:42:16.883Z,55.80
2019-03-04T18:44:59.052Z,55.20
2019-03-04T18:47:43.121Z,55.10
2019-03-04T18:50:27.118Z,54.60
2019-03-04T18:53:10.835Z,53.90
2019-03-04T18:55:52.937Z,53.60
2019-03-04T18:58:34.836Z,53.10
2019-03-04T19:01:16.572Z,53.10
2019-03-04T19:04:01.427Z,52.90
2019-03-04T19:06:45.744Z,52.80
2019-03-04T19:09:30.076Z,52.80
2019-03-04T19:12:12.106Z,52.30
2019-03-04T19:14:54.008Z,52.70
2019-03-04T19:17:37.828Z,52.20
2019-03-04T19:20:19.947Z,51.90
2019-03-04T19:23:02.753Z,52.20
2019-03-04T19:25:44.862Z,52.30
2019-03-04T19:28:26.841Z,52.30
2019-03-04T19:31:09.024Z,52.50
2019-03-04T19:33:50.924Z,52.40
2019-03-04T19:36:33.060Z,52.50
2019-03-04T19:39:15.082Z,52.40
2019-03-04T19:41:57.146Z,52.20
2019-03-04T19:44:38.933Z,52.30
2019-03-04T19:47:22.951Z,52.00
2019-03-04T19:50:07.019Z,52.00
2019-03-04T19:52:50.923Z,52.10
2019-03-04T19:55:34.683Z,52.10
2019-03-04T19:58:16.662Z,51.80
2019-03-04T20:00:58.582Z,51.80
2019-03-04T20:03:40.540Z,51.80
2019-03-04T20:06:23.436Z,51.80
2019-03-04T20:09:07.886Z,51.80
2019-03-04T20:11:49.526Z,51.70
2019-03-04T20:14:33.852Z,51.60
2019-03-04T20:17:17.568Z,51.70
2019-03-04T20:20:01.937Z,51.80
2019-03-04T20:22:45.670Z,51.60
2019-03-04T20:25:29.474Z,51.20
2019-03-04T20:28:11.950Z,51.20
2019-03-04T20:30:55.466Z,51.00
2019-03-04T20:33:37.346Z,52.20
2019-03-04T20:36:19.104Z,50.50
2019-03-04T20:39:02.318Z,50.60
2019-03-04T20:41:46.101Z,50.40
2019-03-04T20:44:28.758Z,50.40
2019-03-04T20:47:10.724Z,49.90
2019-03-04T20:49:52.549Z,49.70
2019-03-04T20:52:36.317Z,49.80
2019-03-04T20:55:20.289Z,49.50
2019-03-04T20:58:02.268Z,49.20
2019-03-04T21:00:44.579Z,48.90
2019-03-04T21:03:34.597Z,48.80
2019-03-04T21:06:10.748Z,48.60
2019-03-04T21:08:52.919Z,48.70
2019-03-04T21:11:35.188Z,48.80
2019-03-04T21:14:17.163Z,48.90
2019-03-04T21:17:00.151Z,48.80
2019-03-04T21:19:47.829Z,48.60
2019-03-04T21:22:49.608Z,48.50
2019-03-04T21:25:32.063Z,48.20
2019-03-04T21:28:13.628Z,48.40
2019-03-04T21:30:57.661Z,48.40
2019-03-04T21:33:40.717Z,48.20
2019-03-04T21:36:23.217Z,48.20
2019-03-04T21:39:05.402Z,48.30
2019-03-04T21:41:51.298Z,48.10
2019-03-04T21:44:33.004Z,48.10
2019-03-04T21:47:17.069Z,48.10
2019-03-04T21:50:02.360Z,48.20
2019-03-04T21:52:46.670Z,48.10
2019-03-04T21:55:30.648Z,48.10
2019-03-04T21:58:13.048Z,48.10
2019-03-04T22:00:56.020Z,48.10
2019-03-04T22:03:38.834Z,48.10
2019-03-04T22:06:20.833Z,48.10
2019-03-04T22:09:03.376Z,48.10
2019-03-04T22:11:46.517Z,48.20
2019-03-04T22:14:28.287Z,48.50
2019-03-04T22:17:11.077Z,48.70
2019-03-04T22:19:53.242Z,49.00
2019-03-04T22:22:34.945Z,49.30
2019-03-04T22:25:16.954Z,49.60
2019-03-04T22:27:58.852Z,49.60
2019-03-04T22:30:43.239Z,49.90
2019-03-04T22:33:25.269Z,50.00
2019-03-04T22:36:07.433Z,50.00
2019-03-04T22:38:49.217Z,50.50
2019-03-04T22:41:31.053Z,50.70
2019-03-04T22:44:14.040Z,51.00
2019-03-04T22:46:57.971Z,51.20
2019-03-04T22:49:41.891Z,51.60
2019-03-04T22:52:23.702Z,51.70
2019-03-04T22:55:07.669Z,52.20
2019-03-04T22:57:50.345Z,52.60
2019-03-04T23:00:36.031Z,52.70
2019-03-04T23:03:20.067Z,53.10
2019-03-04T23:06:01.874Z,53.90
2019-03-04T23:08:44.808Z,54.50
2019-03-04T23:11:28.840Z,55.20
2019-03-04T23:14:10.601Z,55.70
2019-03-04T23:16:54.742Z,56.30
2019-03-04T23:19:38.943Z,56.60
2019-03-04T23:22:23.986Z,57.40
2019-03-04T23:25:09.085Z,57.80
2019-03-04T23:27:51.840Z,58.20
2019-03-04T23:30:33.756Z,58.70
2019-03-04T23:33:15.766Z,59.10
2019-03-04T23:35:57.893Z,59.40
2019-03-04T23:38:39.719Z,59.50
2019-03-04T23:41:21.892Z,59.50
2019-03-04T23:44:04.278Z,59.50
2019-03-04T23:46:47.967Z,59.40
2019-03-04T23:49:30.164Z,59.40
2019-03-04T23:52:12.957Z,59.40
2019-03-04T23:54:55.112Z,59.50
2019-03-04T23:57:37.187Z,59.60
